Time;durP1;ratioP1;P1;durP2;ratioP2;P2;SDS_P1;SDS_P2;PMS_P1;PMS_P2;Temp;Humidity;BMP_temperature;BMP_pressure;BME280_temperature;BME280_humidity;BME280_pressure;Samples;Min_cycle;Max_cycle;Signal;HPM_P1;HPM_P2
2022/11/24 00:01:04;;;;;;;9.65;2.22;;;;;;;-142.75;100.00;76645.09;4970384;28;20060;-66
2022/11/24 00:03:30;;;;;;;17.80;2.90;;;;;;;-142.75;100.00;76654.94;4972960;28;20029;-66
2022/11/24 00:05:55;;;;;;;22.58;3.63;;;;;;;-142.75;100.00;76668.72;4974792;28;20461;-66
2022/11/24 00:08:21;;;;;;;10.75;4.07;;;;;;;-142.75;100.00;76660.84;4976198;28;20350;-66
2022/11/24 00:10:46;;;;;;;26.20;2.78;;;;;;;-142.75;100.00;76668.72;4971019;28;20351;-66
2022/11/24 00:13:12;;;;;;;20.17;2.33;;;;;;;-142.75;100.00;76666.75;4971490;28;20299;-65
2022/11/24 00:15:37;;;;;;;18.88;2.47;;;;;;;-142.75;100.00;76662.81;4977378;28;20106;-66
2022/11/24 00:18:03;;;;;;;13.05;2.47;;;;;;;-142.75;100.00;76676.59;4978457;28;20029;-65
2022/11/24 00:20:28;;;;;;;13.52;2.95;;;;;;;-142.75;100.00;76660.84;4973754;28;20267;-66
2022/11/24 00:22:54;;;;;;;16.25;2.40;;;;;;;-142.75;100.00;76652.97;4968824;28;20558;-65
2022/11/24 00:25:20;;;;;;;15.10;2.65;;;;;;;-142.75;100.00;76668.72;4970529;28;20221;-64
2022/11/24 00:27:45;;;;;;;12.77;2.30;;;;;;;-142.75;100.00;76668.72;4974866;28;20300;-65
2022/11/24 00:30:11;;;;;;;11.93;2.33;;;;;;;-142.75;100.00;76680.53;4965289;28;20358;-66
2022/11/24 00:32:37;;;;;;;10.80;2.33;;;;;;;-142.75;100.00;76672.66;4971861;28;20186;-66
2022/11/24 00:35:02;;;;;;;14.15;2.30;;;;;;;-142.75;100.00;76670.69;4975503;28;20094;-66
2022/11/24 00:37:28;;;;;;;16.63;3.58;;;;;;;-142.75;100.00;76664.78;4970798;28;20486;-66
2022/11/24 00:39:54;;;;;;;13.55;2.28;;;;;;;-142.75;100.00;76668.72;4969506;28;20030;-65
2022/11/24 00:42:19;;;;;;;10.23;2.15;;;;;;;-142.75;100.00;76674.63;4971318;28;20060;-66
2022/11/24 00:44:45;;;;;;;11.10;1.80;;;;;;;-142.75;100.00;76684.47;4970739;28;20311;-65
2022/11/24 00:47:10;;;;;;;11.60;2.25;;;;;;;-142.75;100.00;76676.59;4970265;28;20363;-65
2022/11/24 00:49:36;;;;;;;22.77;2.55;;;;;;;-142.75;100.00;76666.75;4971758;28;20086;-66
2022/11/24 00:52:01;;;;;;;14.48;1.75;;;;;;;-142.75;100.00;76664.78;4973933;28;20278;-66
2022/11/24 00:54:27;;;;;;;12.02;1.90;;;;;;;-142.75;100.00;76674.63;4973914;28;20030;-65
2022/11/24 00:56:52;;;;;;;9.52;1.77;;;;;;;-142.75;100.00;76684.47;4972231;28;20388;-65
2022/11/24 00:59:18;;;;;;;14.10;2.03;;;;;;;-142.75;100.00;76690.38;4974294;28;20327;-65
2022/11/24 01:01:43;;;;;;;9.52;1.35;;;;;;;-142.75;100.00;76668.72;4974118;28;20317;-65
2022/11/24 01:04:09;;;;;;;13.20;3.30;;;;;;;-142.75;100.00;76676.59;4970669;28;20330;-65
2022/11/24 01:06:35;;;;;;;11.25;2.22;;;;;;;-142.75;100.00;76676.59;4971616;28;20296;-65
2022/11/24 01:09:01;;;;;;;15.15;2.55;;;;;;;-142.75;100.00;76676.59;4974578;28;20354;-65
2022/11/24 01:14:24;;;;;;;11.40;2.08;;;;;;;-142.75;100.00;76672.66;4976215;28;20433;-65
2022/11/24 01:16:49;;;;;;;11.70;1.80;;;;;;;-142.75;100.00;76672.66;4969328;28;20021;-66
2022/11/24 01:19:15;;;;;;;13.27;1.77;;;;;;;-142.75;100.00;76674.63;4967185;28;20498;-66
2022/11/24 01:21:40;;;;;;;13.90;2.45;;;;;;;-142.75;100.00;76678.56;4963513;28;20381;-66
2022/11/24 01:24:06;;;;;;;23.58;2.25;;;;;;;-142.75;100.00;76682.50;4978812;28;20049;-65
2022/11/24 01:26:31;;;;;;;8.65;1.60;;;;;;;-142.75;100.00;76684.47;4976086;28;20306;-66
2022/11/24 01:28:57;;;;;;;14.30;2.00;;;;;;;-142.75;100.00;76684.47;4978483;28;20191;-65
2022/11/24 01:31:24;;;;;;;12.18;2.08;;;;;;;-142.75;100.00;76680.53;4979917;28;20561;-66
2022/11/24 01:33:50;;;;;;;10.05;1.83;;;;;;;-142.75;100.00;76676.59;4967409;28;20988;-66
2022/11/24 01:36:15;;;;;;;7.85;2.00;;;;;;;-142.75;100.00;76680.53;4980731;28;20037;-65
2022/11/24 01:38:41;;;;;;;12.57;1.75;;;;;;;-142.75;100.00;76692.34;4985003;28;20454;-65
2022/11/24 01:41:12;;;;;;;15.10;1.88;;;;;;;-142.75;100.00;76680.53;4980560;28;20325;-65
2022/11/24 01:43:38;;;;;;;10.77;1.98;;;;;;;-142.75;100.00;76692.34;4979850;28;20114;-65
2022/11/24 01:46:17;;;;;;;;;;;;;;;-142.75;100.00;76684.47;4978104;28;20084;-65
2022/11/24 01:48:47;;;;;;;11.40;2.28;;;;;;;-142.75;100.00;76688.41;4975608;28;19921;-65
2022/11/24 01:51:22;;;;;;;11.52;1.98;;;;;;;-142.75;100.00;76700.22;4979086;28;20048;-66
2022/11/24 01:53:54;;;;;;;22.55;2.50;;;;;;;-142.75;100.00;76688.41;4975830;28;20033;-65
2022/11/24 01:56:20;;;;;;;12.88;2.70;;;;;;;-142.75;100.00;76692.34;4978196;28;20584;-64
2022/11/24 01:58:47;;;;;;;7.13;1.55;;;;;;;-142.75;100.00;76680.53;4975836;28;20014;-65
2022/11/24 02:01:13;;;;;;;12.57;2.13;;;;;;;-142.75;100.00;76692.34;4979674;28;20150;-64
2022/11/24 02:03:42;;;;;;;10.32;2.28;;;;;;;-142.75;100.00;76694.31;4980785;28;20607;-65
2022/11/24 02:06:12;;;;;;;20.20;2.28;;;;;;;-142.75;100.00;76692.34;4978754;28;20616;-65
2022/11/24 02:08:54;;;;;;;11.77;1.65;;;;;;;-142.75;100.00;76688.41;4977842;28;20029;-65
2022/11/24 02:11:22;;;;;;;9.23;1.75;;;;;;;-142.75;100.00;76684.47;4972876;28;20576;-64
2022/11/24 02:13:50;;;;;;;15.07;2.33;;;;;;;-142.75;100.00;76688.41;4973664;28;20028;-65
2022/11/24 02:16:15;;;;;;;19.75;2.40;;;;;;;-142.75;100.00;76680.53;4977579;28;20585;-66
2022/11/24 02:18:42;;;;;;;12.55;1.58;;;;;;;-142.75;100.00;76688.41;4976450;28;20052;-65
2022/11/24 02:21:10;;;;;;;7.72;1.55;;;;;;;-142.75;100.00;76666.75;4970378;28;20565;-64
2022/11/24 02:23:54;;;;;;;6.20;1.33;;;;;;;-142.75;100.00;76700.22;4973703;28;20052;-65
2022/11/24 02:26:40;;;;;;;9.73;1.42;;;;;;;-142.75;100.00;76714.00;4979268;28;20017;-65
2022/11/24 02:29:07;;;;;;;10.07;1.58;;;;;;;-142.75;100.00;76745.50;4970734;28;20025;-65
2022/11/24 02:31:33;;;;;;;9.00;1.48;;;;;;;-142.75;100.00;76741.56;4970493;28;20033;-65
2022/11/24 02:33:58;;;;;;;5.60;1.15;;;;;;;-142.75;100.00;76747.47;4973608;28;20180;-64
2022/11/24 02:36:24;;;;;;;3.40;0.93;;;;;;;-142.75;100.00;76749.44;4968141;28;20094;-65
2022/11/24 02:38:49;;;;;;;10.10;1.25;;;;;;;-142.75;100.00;76767.16;4978984;28;20292;-66
2022/11/24 02:41:21;;;;;;;5.32;0.70;;;;;;;-142.75;100.00;76777.00;4972208;28;20342;-65
2022/11/24 02:44:05;;;;;;;3.30;0.68;;;;;;;-142.75;100.00;76780.94;4979563;28;20052;-65
2022/11/24 02:46:30;;;;;;;5.88;0.70;;;;;;;-142.75;100.00;76775.03;4973644;28;20025;-66
2022/11/24 02:48:56;;;;;;;4.75;0.50;;;;;;;-142.75;100.00;76771.09;4976778;28;20408;-65
2022/11/24 02:51:21;;;;;;;4.93;0.70;;;;;;;-142.75;100.00;76767.16;4974491;28;20172;-66
2022/11/24 02:53:47;;;;;;;8.85;0.77;;;;;;;-142.75;100.00;76777.00;4975563;28;20453;-65
2022/11/24 02:56:13;;;;;;;2.38;0.60;;;;;;;-142.75;100.00;76780.94;4975739;28;20051;-64
2022/11/24 02:58:38;;;;;;;4.22;0.55;;;;;;;-142.75;100.00;76786.84;4970957;28;20309;-64
2022/11/24 03:01:04;;;;;;;2.20;0.73;;;;;;;-142.75;100.00;76786.84;4974983;28;20098;-64
2022/11/24 03:03:29;;;;;;;5.03;0.50;;;;;;;-142.75;100.00;76786.84;4978156;28;20377;-65
2022/11/24 03:05:55;;;;;;;3.28;0.60;;;;;;;-142.75;100.00;76786.84;4971056;28;20389;-65
2022/11/24 03:08:20;;;;;;;10.80;1.27;;;;;;;-142.75;100.00;76784.88;4979472;28;20040;-65
2022/11/24 03:10:46;;;;;;;8.30;1.23;;;;;;;-142.75;100.00;76794.69;4976352;28;20450;-65
2022/11/24 03:13:11;;;;;;;7.85;0.82;;;;;;;-142.75;100.00;76784.88;4972712;28;20354;-65
2022/11/24 03:15:37;;;;;;;9.45;1.10;;;;;;;-142.75;100.00;76792.75;4966080;28;20362;-65
2022/11/24 03:18:03;;;;;;;9.80;1.17;;;;;;;-142.75;100.00;76782.91;4967851;28;20354;-65
2022/11/24 03:20:28;;;;;;;4.85;1.30;;;;;;;-142.75;100.00;76782.91;4970342;28;20485;-65
2022/11/24 03:22:54;;;;;;;6.07;1.08;;;;;;;-142.75;100.00;76794.69;4974320;28;20271;-65
2022/11/24 03:25:19;;;;;;;5.25;1.30;;;;;;;-142.75;100.00;76788.81;4981081;28;20423;-65
2022/11/24 03:27:45;;;;;;;9.55;1.45;;;;;;;-142.75;100.00;76782.91;4975228;28;20461;-65
2022/11/24 03:30:11;;;;;;;;;;;;;;;-142.75;100.00;76784.88;4975060;28;20542;-65
2022/11/24 03:32:37;;;;;;;13.43;1.70;;;;;;;-142.75;100.00;76784.88;4969356;28;20026;-66
2022/11/24 03:35:03;;;;;;;10.52;2.03;;;;;;;-142.75;100.00;76778.97;4971075;28;20319;-66
2022/11/24 03:37:29;;;;;;;18.58;1.80;;;;;;;-142.75;100.00;76775.03;4972046;28;20455;-65
2022/11/24 03:39:54;;;;;;;;;;;;;;;-142.75;100.00;76759.28;4969088;28;20017;-67
2022/11/24 03:42:20;;;;;;;11.25;2.00;;;;;;;-142.75;100.00;76778.97;4974402;28;20214;-65
2022/11/24 03:44:45;;;;;;;11.85;2.55;;;;;;;-142.75;100.00;76771.09;4975404;28;20307;-64
2022/11/24 03:47:11;;;;;;;10.63;2.05;;;;;;;-142.75;100.00;76773.06;4968790;28;20472;-66
2022/11/24 03:49:37;;;;;;;11.52;2.38;;;;;;;-142.75;100.00;76775.03;4976203;28;20558;-65
2022/11/24 03:52:03;;;;;;;12.85;2.10;;;;;;;-142.75;100.00;76786.84;4970506;28;20060;-64
2022/11/24 03:54:29;;;;;;;14.02;3.00;;;;;;;-142.75;100.00;76782.91;4976154;28;20325;-65
2022/11/24 03:56:54;;;;;;;14.88;2.63;;;;;;;-142.75;100.00;76769.13;4971222;28;20095;-65
2022/11/24 03:59:20;;;;;;;15.80;2.40;;;;;;;-142.75;100.00;76775.03;4968142;28;20347;-65
2022/11/24 04:01:46;;;;;;;8.60;2.33;;;;;;;-142.75;100.00;76792.75;4972959;28;20241;-66
2022/11/24 04:04:12;;;;;;;15.30;2.42;;;;;;;-142.75;100.00;76790.78;4977010;28;20413;-64
2022/11/24 04:06:38;;;;;;;18.33;3.03;;;;;;;-142.75;100.00;76794.69;4972434;28;20052;-64
2022/11/24 04:09:04;;;;;;;14.90;2.10;;;;;;;-142.75;100.00;76806.50;4972384;28;20705;-65
2022/11/24 04:14:13;;;;;;;7.85;1.70;;;;;;;-142.75;100.00;76818.31;4977472;28;20202;-65
2022/11/24 04:16:39;;;;;;;12.15;3.13;;;;;;;-142.75;100.00;76847.84;4975810;28;20394;-65
2022/11/24 04:19:05;;;;;;;5.50;1.77;;;;;;;-142.75;100.00;76847.84;4972515;28;20447;-65
2022/11/24 04:21:30;;;;;;;9.50;1.30;;;;;;;-142.75;100.00;76857.69;4975596;28;20342;-65
2022/11/24 04:23:55;;;;;;;3.75;1.05;;;;;;;-142.75;100.00;76873.44;4976463;28;20025;-65
2022/11/24 04:26:22;;;;;;;3.97;1.25;;;;;;;-142.75;100.00;76889.19;4976235;28;20437;-65
2022/11/24 04:28:48;;;;;;;;;;;;;;;-142.75;100.00;76893.13;4974401;28;20017;-65
2022/11/24 04:31:14;;;;;;;2.92;0.80;;;;;;;-142.75;100.00;76910.84;4970608;28;19913;-65
2022/11/24 04:33:39;;;;;;;2.40;0.70;;;;;;;-142.75;100.00;76924.63;4976457;28;20326;-65
2022/11/24 04:36:05;;;;;;;6.43;1.10;;;;;;;-142.75;100.00;76922.66;4973330;28;20449;-64
2022/11/24 04:38:31;;;;;;;4.50;0.63;;;;;;;-142.75;100.00;76946.28;4967749;28;20547;-66
2022/11/24 04:41:02;;;;;;;6.05;0.70;;;;;;;-142.75;100.00;76952.19;4970774;28;20065;-64
2022/11/24 04:43:28;;;;;;;4.18;0.60;;;;;;;-142.75;100.00;76954.16;4964908;28;20161;-65
2022/11/24 04:45:54;;;;;;;;;;;;;;;-142.75;100.00;76948.25;4974133;28;20036;-66
2022/11/24 04:48:19;;;;;;;3.65;0.57;;;;;;;-142.75;100.00;76960.06;4974419;28;20024;-66
2022/11/24 04:50:45;;;;;;;1.42;0.80;;;;;;;-142.75;100.00;76952.19;4983401;28;20356;-66
2022/11/24 04:53:10;;;;;;;4.57;0.98;;;;;;;-142.75;100.00;76962.03;4978241;28;20025;-65
2022/11/24 04:55:39;;;;;;;4.28;0.68;;;;;;;-142.75;100.00;76971.88;4984727;28;20271;-65
2022/11/24 04:58:09;;;;;;;2.00;0.50;;;;;;;-142.75;100.00;76977.78;4975057;28;20083;-64
2022/11/24 05:00:35;;;;;;;3.67;0.55;;;;;;;-142.75;100.00;76987.63;4963049;28;20118;-65
2022/11/24 05:03:00;;;;;;;2.78;0.60;;;;;;;-142.75;100.00;76987.63;4965905;28;20354;-66
2022/11/24 05:05:26;;;;;;;3.65;0.40;;;;;;;-142.75;100.00;76975.81;4979197;28;20424;-64
2022/11/24 05:07:51;;;;;;;4.82;0.65;;;;;;;-142.75;100.00;76989.59;4971499;28;20366;-66
2022/11/24 05:10:35;;;;;;;3.22;0.50;;;;;;;-142.75;100.00;76993.53;4971862;28;20327;-66
2022/11/24 05:13:03;;;;;;;3.63;0.75;;;;;;;-142.75;100.00;76989.59;4968768;28;20033;-64
2022/11/24 05:15:29;;;;;;;5.95;0.82;;;;;;;-142.75;100.00;76987.63;4976270;28;20056;-66
2022/11/24 05:17:55;;;;;;;6.35;1.08;;;;;;;-142.75;100.00;76987.63;4963912;28;20358;-66
2022/11/24 05:20:21;;;;;;;5.90;0.82;;;;;;;-142.75;100.00;76993.53;4968322;28;20043;-65
2022/11/24 05:22:47;;;;;;;2.17;0.82;;;;;;;-142.75;100.00;76991.56;4988769;22;20465;-65
2022/11/24 05:25:13;;;;;;;3.30;0.75;;;;;;;-142.75;100.00;76997.47;4982092;28;20132;-65
2022/11/24 05:27:39;;;;;;;4.32;0.90;;;;;;;-142.75;100.00;77011.25;4972016;28;20323;-65
2022/11/24 05:30:05;;;;;;;5.00;1.05;;;;;;;-142.75;100.00;77007.31;4974248;28;20573;-65
2022/11/24 05:32:31;;;;;;;;;;;;;;;-142.75;100.00;77017.16;4977973;28;20024;-65
2022/11/24 05:34:57;;;;;;;4.57;1.30;;;;;;;-142.75;100.00;77019.13;4968016;28;20214;-64
2022/11/24 05:37:24;;;;;;;6.25;1.25;;;;;;;-142.75;100.00;77007.31;4964675;28;20300;-65
2022/11/24 05:39:50;;;;;;;5.45;1.13;;;;;;;-142.75;100.00;77005.34;4962298;28;20534;-65
2022/11/24 05:45:00;;;;;;;4.20;1.17;;;;;;;-142.75;100.00;77013.22;4949382;28;20334;-65
2022/11/24 05:47:25;;;;;;;6.50;1.23;;;;;;;-142.75;100.00;77015.19;4974117;28;20516;-65
2022/11/24 05:49:51;;;;;;;6.93;1.67;;;;;;;-142.75;100.00;77027.00;4969867;28;20425;-65
2022/11/24 05:52:16;;;;;;;3.97;1.58;;;;;;;-142.75;100.00;77030.94;4968246;28;20358;-65
2022/11/24 05:54:42;;;;;;;6.03;1.58;;;;;;;-142.75;100.00;77030.94;4974698;28;20389;-65
2022/11/24 05:57:08;;;;;;;6.60;1.83;;;;;;;-142.75;100.00;77036.84;4979983;28;20491;-65
2022/11/24 05:59:33;;;;;;;6.20;1.88;;;;;;;-142.75;100.00;77046.69;4984124;28;20413;-65
2022/11/24 06:01:59;;;;;;;9.88;1.70;;;;;;;-142.75;100.00;77050.63;4976229;28;20143;-66
2022/11/24 06:04:24;;;;;;;3.80;1.70;;;;;;;-142.75;100.00;77062.44;4980121;28;20055;-65
2022/11/24 06:06:50;;;;;;;5.43;1.70;;;;;;;-142.75;100.00;77062.44;4967436;28;20334;-65
2022/11/24 06:09:15;;;;;;;11.43;2.30;;;;;;;-142.75;100.00;77056.53;4976954;28;20412;-65
2022/11/24 06:11:42;;;;;;;5.40;2.28;;;;;;;-142.75;100.00;77066.38;4969706;28;20333;-65
2022/11/24 06:14:09;;;;;;;12.52;2.13;;;;;;;-142.75;100.00;77070.31;4975516;28;20139;-65
2022/11/24 06:16:35;;;;;;;4.80;2.35;;;;;;;-142.75;100.00;77086.06;4982120;28;20538;-65
2022/11/24 06:19:00;;;;;;;6.13;2.42;;;;;;;-142.75;100.00;77082.13;4973436;28;20017;-65
2022/11/24 06:21:26;;;;;;;8.30;2.85;;;;;;;-142.75;100.00;77084.09;4970618;28;20345;-65
2022/11/24 06:23:52;;;;;;;6.00;2.22;;;;;;;-142.75;100.00;77086.06;4967433;28;20138;-65
2022/11/24 06:26:18;;;;;;;6.45;2.38;;;;;;;-142.75;100.00;77090.00;4969218;28;20448;-64
2022/11/24 06:28:43;;;;;;;4.55;1.75;;;;;;;-142.75;100.00;77091.97;4979221;28;20416;-65
2022/11/24 06:31:09;;;;;;;6.38;1.73;;;;;;;-142.75;100.00;77097.88;4970725;28;20358;-65
2022/11/24 06:33:35;;;;;;;;;;;;;;;-142.75;100.00;77105.75;4977889;28;20033;-65
2022/11/24 06:36:03;;;;;;;4.10;1.83;;;;;;;-142.75;100.00;77105.75;4963438;28;19986;-65
2022/11/24 06:38:30;;;;;;;7.60;2.10;;;;;;;-142.75;100.00;77101.81;4975489;28;20029;-65
2022/11/24 06:41:06;;;;;;;7.15;1.80;;;;;;;-142.75;100.00;77103.78;4965103;28;20115;-65
2022/11/24 06:43:33;;;;;;;3.20;1.90;;;;;;;-142.75;100.00;77125.44;4978352;28;20056;-65
2022/11/24 06:45:59;;;;;;;10.07;2.58;;;;;;;-142.75;100.00;77123.47;4980292;28;20054;-65
2022/11/24 06:48:26;;;;;;;4.00;1.88;;;;;;;-142.75;100.00;77121.50;4978919;28;20051;-65
2022/11/24 06:50:51;;;;;;;;;;;;;;;-142.75;100.00;77121.50;4978123;28;20021;-64
2022/11/24 06:53:17;;;;;;;7.43;2.38;;;;;;;-142.75;100.00;77123.47;4970842;28;20292;-64
2022/11/24 06:55:43;;;;;;;8.90;2.55;;;;;;;-142.75;100.00;77125.44;4976884;28;20307;-65
2022/11/24 06:58:09;;;;;;;8.13;2.92;;;;;;;-142.75;100.00;77145.13;4979163;28;20052;-65
2022/11/24 07:00:36;;;;;;;7.40;2.67;;;;;;;-142.75;100.00;77143.16;4970532;28;20358;-65
2022/11/24 07:03:01;;;;;;;13.23;3.30;;;;;;;-142.75;100.00;77145.13;4978254;28;20236;-65
2022/11/24 07:05:27;;;;;;;6.40;2.80;;;;;;;-142.75;100.00;77145.13;4970940;28;20325;-64
2022/11/24 07:07:52;;;;;;;7.63;2.97;;;;;;;-142.75;100.00;77141.19;4976015;28;20338;-65
2022/11/24 07:10:18;;;;;;;11.40;3.20;;;;;;;-142.75;100.00;77141.19;4962671;28;20021;-65
2022/11/24 07:12:43;;;;;;;7.70;2.70;;;;;;;-142.75;100.00;77141.19;4969231;28;20353;-64
2022/11/24 07:15:09;;;;;;;7.32;2.85;;;;;;;-142.75;100.00;77145.13;4964262;28;20650;-65
2022/11/24 07:17:38;;;;;;;8.02;2.72;;;;;;;-142.75;100.00;77139.22;4975752;28;20341;-65
2022/11/24 07:20:05;;;;;;;6.30;2.55;;;;;;;-142.75;100.00;77139.22;4963851;28;20550;-65
2022/11/24 07:22:30;;;;;;;16.50;2.83;;;;;;;-142.75;100.00;77137.25;4961894;28;20562;-65
2022/11/24 07:24:56;;;;;;;5.25;1.73;;;;;;;-142.75;100.00;77141.19;4983504;28;20031;-65
2022/11/24 07:27:21;;;;;;;6.57;1.63;;;;;;;-142.75;100.00;77143.16;4968377;28;20304;-65
2022/11/24 07:29:47;;;;;;;11.05;2.20;;;;;;;-142.75;100.00;77141.19;4964014;28;20386;-65
2022/11/24 07:32:12;;;;;;;11.05;1.90;;;;;;;-142.75;100.00;77151.03;4980181;28;20497;-65
2022/11/24 07:34:38;;;;;;;7.63;1.55;;;;;;;-142.75;100.00;77156.94;4971387;28;20473;-65
2022/11/24 07:37:03;;;;;;;5.50;1.58;;;;;;;-142.75;100.00;77170.72;4975176;28;20249;-64
2022/11/24 07:39:29;;;;;;;7.95;1.13;;;;;;;-142.75;100.00;77176.63;4972533;28;20420;-65
2022/11/24 07:41:54;;;;;;;9.13;1.25;;;;;;;-142.75;100.00;77158.91;4976858;28;20347;-65
2022/11/24 07:44:20;;;;;;;6.10;1.20;;;;;;;-142.75;100.00;77164.81;4970803;28;20312;-65
2022/11/24 07:46:45;;;;;;;3.35;1.05;;;;;;;-142.75;100.00;77168.75;4978096;28;20191;-65
2022/11/24 07:49:11;;;;;;;6.60;1.02;;;;;;;-142.75;100.00;77153.00;4981777;28;20507;-67
2022/11/24 07:51:36;;;;;;;3.80;1.13;;;;;;;-142.75;100.00;77160.88;4971490;28;20353;-65
2022/11/24 07:54:02;;;;;;;5.50;1.10;;;;;;;-142.75;100.00;77145.13;4971539;28;20341;-65
2022/11/24 07:56:27;;;;;;;5.32;1.60;;;;;;;-142.75;100.00;77153.00;4963723;28;20420;-65
2022/11/24 07:58:53;;;;;;;6.78;1.45;;;;;;;-142.75;100.00;77129.38;4965996;28;20437;-65
2022/11/24 08:01:19;;;;;;;5.55;1.52;;;;;;;-142.75;100.00;77123.47;4972074;28;20476;-65
2022/11/24 08:03:45;;;;;;;7.90;1.20;;;;;;;-142.75;100.00;77101.81;4969580;28;20320;-64
2022/11/24 08:06:11;;;;;;;6.60;1.92;;;;;;;-142.75;100.00;77068.34;4971004;28;20130;-65
2022/11/24 08:08:37;;;;;;;;;;;;;;;-142.75;100.00;77032.91;4978449;28;20029;-65
2022/11/24 08:11:11;;;;;;;4.30;1.52;;;;;;;-142.75;100.00;77027.00;4966111;28;20137;-65
2022/11/24 08:13:37;;;;;;;10.30;1.88;;;;;;;-142.75;100.00;77032.91;4958457;28;20064;-62
2022/11/24 08:16:05;;;;;;;7.32;1.52;;;;;;;-142.75;100.00;77017.16;4968827;28;20064;-64
2022/11/24 08:18:30;;;;;;;6.45;1.38;;;;;;;-142.75;100.00;76979.75;4967193;28;20136;-67
2022/11/24 08:20:59;;;;;;;8.85;1.60;;;;;;;-142.75;100.00;76977.78;4981154;28;20043;-67
2022/11/24 08:23:25;;;;;;;7.78;1.23;;;;;;;-142.75;100.00;76946.28;4958538;28;20029;-67
2022/11/24 08:25:51;;;;;;;;;;;;;;;-142.75;100.00;76924.63;4957004;28;20021;-67
2022/11/24 08:28:16;;;;;;;8.82;1.95;;;;;;;-142.75;100.00;76912.81;4966330;28;20230;-67
2022/11/24 08:30:42;;;;;;;5.60;1.40;;;;;;;-142.75;100.00;76871.47;4974319;28;20184;-68
2022/11/24 08:33:07;;;;;;;8.18;2.05;;;;;;;-142.75;100.00;76847.84;4961011;28;20018;-67
2022/11/24 08:35:39;;;;;;;10.15;1.67;;;;;;;-142.75;100.00;76806.50;4968599;28;20428;-66
2022/11/24 08:38:05;;;;;;;8.60;1.50;;;;;;;-142.75;100.00;76767.16;4965648;28;20047;-67
2022/11/24 08:40:31;;;;;;;7.82;1.30;;;;;;;-142.75;100.00;76737.63;4978568;28;20021;-67
2022/11/24 08:42:57;;;;;;;;;;;;;;;-142.75;100.00;76733.69;5018041;28;20033;-66
2022/11/24 08:45:23;;;;;;;9.13;1.27;;;;;;;-142.75;100.00;76715.97;5013845;28;19963;-66
2022/11/24 08:47:54;;;;;;;;;;;;;;;-142.75;100.00;76692.34;5024331;28;20043;-66
2022/11/24 08:50:21;;;;;;;11.45;1.20;;;;;;;-142.75;100.00;76680.53;5023143;28;20012;-67
2022/11/24 08:52:46;;;;;;;4.95;1.27;;;;;;;-142.75;100.00;76652.97;5031511;28;20029;-67
2022/11/24 08:55:11;;;;;;;5.80;1.50;;;;;;;-142.75;100.00;76637.22;5027953;28;20041;-63
2022/11/24 08:57:37;;;;;;;;;;;;;;;-142.75;100.00;76617.53;5030389;28;20482;-65
2022/11/24 09:00:04;;;;;;;6.40;1.10;;;;;;;-142.75;100.00;76637.22;5007075;28;20083;-64
2022/11/24 09:02:29;;;;;;;5.85;1.17;;;;;;;-142.75;100.00;76601.78;4965854;28;20026;-66
2022/11/24 09:04:54;;;;;;;7.93;1.45;;;;;;;-142.75;100.00;76621.47;4953378;28;20343;-67
2022/11/24 09:07:20;;;;;;;6.35;1.45;;;;;;;-142.75;100.00;76599.81;4960675;28;20334;-66
2022/11/24 09:09:46;;;;;;;5.30;1.00;;;;;;;-142.75;100.00;76588.00;4978037;28;20299;-66
2022/11/24 09:12:11;;;;;;;;;;;;;;;-142.75;100.00;76538.78;4977229;28;20389;-67
2022/11/24 09:14:36;;;;;;;8.07;1.30;;;;;;;-142.75;100.00;76544.69;4962402;28;19913;-64
2022/11/24 09:17:02;;;;;;;10.45;1.27;;;;;;;-142.75;100.00;76552.56;4971897;28;20029;-64
2022/11/24 09:19:27;;;;;;;8.48;1.25;;;;;;;-142.75;100.00;76530.91;4964978;28;20373;-65
2022/11/24 09:21:53;;;;;;;7.63;1.60;;;;;;;-142.75;100.00;76566.34;4962448;28;20370;-65
2022/11/24 09:24:18;;;;;;;;;;;;;;;-142.75;100.00;76562.41;4966999;28;20327;-67
2022/11/24 09:26:44;;;;;;;8.75;1.23;;;;;;;-142.75;100.00;76629.34;4962779;28;20195;-66
2022/11/24 09:29:09;;;;;;;6.97;1.08;;;;;;;-142.75;100.00;76611.63;4968531;28;20470;-64
2022/11/24 09:31:36;;;;;;;9.23;1.13;;;;;;;-142.75;100.00;76633.28;4979432;28;20318;-64
2022/11/24 09:34:04;;;;;;;6.43;1.10;;;;;;;-142.75;100.00;76617.53;4962191;28;20060;-64
2022/11/24 09:36:33;;;;;;;7.43;1.10;;;;;;;-142.75;100.00;76637.22;4968687;28;20030;-67
2022/11/24 09:38:58;;;;;;;13.25;1.42;;;;;;;-142.75;100.00;76672.66;4969749;28;20027;-68
2022/11/24 09:41:47;;;;;;;9.38;1.55;;;;;;;-142.75;100.00;76647.06;4969503;28;20346;-68
2022/11/24 09:44:45;;;;;;;8.25;1.30;;;;;;;-142.75;100.00;76664.78;4964616;28;20553;-69
2022/11/24 09:48:01;;;;;;;6.55;1.20;;;;;;;-142.75;100.00;76627.38;4964296;28;20148;-68
2022/11/24 09:50:35;;;;;;;12.05;1.83;;;;;;;-142.75;100.00;76599.81;4890717;28;20159;-69
2022/11/24 09:53:32;;;;;;;7.43;1.20;;;;;;;-142.75;100.00;76538.78;4946637;28;20066;-69
2022/11/24 09:56:19;;;;;;;5.57;1.08;;;;;;;-142.75;100.00;76519.13;4962276;28;20030;-70
2022/11/24 09:58:45;;;;;;;13.45;1.77;;;;;;;-142.75;100.00;76530.91;4963748;28;20017;-70
2022/11/24 10:01:15;;;;;;;8.45;1.50;;;;;;;-142.75;100.00;76558.47;4969393;28;20199;-67
2022/11/24 10:03:52;;;;;;;7.28;2.03;;;;;;;-142.75;100.00;76566.34;4984582;28;20029;-69
2022/11/24 10:06:26;;;;;;;11.35;1.65;;;;;;;-142.75;100.00;76580.13;4987813;28;20024;-69
2022/11/24 10:09:14;;;;;;;9.80;1.40;;;;;;;-142.75;100.00;76588.00;4970121;28;20060;-68
2022/11/24 10:12:05;;;;;;;12.88;1.75;;;;;;;-142.75;100.00;76672.66;4985547;28;20047;-68
2022/11/24 10:14:49;;;;;;;11.13;1.67;;;;;;;-142.75;100.00;76629.34;4969546;28;20048;-68
2022/11/24 10:17:14;;;;;;;10.32;1.83;;;;;;;-142.75;100.00;76615.56;4973605;28;20059;-68
2022/11/24 10:19:53;;;;;;;9.18;1.67;;;;;;;-142.75;100.00;76589.97;4982275;28;20361;-70
2022/11/24 10:23:00;;;;;;;13.57;2.53;;;;;;;-142.75;100.00;76660.84;4983739;28;20021;-68
2022/11/24 10:25:56;;;;;;;15.88;2.35;;;;;;;-142.75;100.00;76607.69;4873698;28;20549;-68
2022/11/24 10:28:34;;;;;;;14.07;2.08;;;;;;;-142.75;100.00;76578.16;4978438;28;20037;-69
2022/11/24 10:31:16;;;;;;;12.18;2.53;;;;;;;-142.75;100.00;76578.16;4980029;28;20069;-73
2022/11/24 10:33:43;;;;;;;11.50;1.95;;;;;;;-142.75;100.00;76548.63;4967325;28;20029;-72
2022/11/24 10:36:19;;;;;;;7.90;2.05;;;;;;;-142.75;100.00;76615.56;4965400;28;20030;-70
2022/11/24 10:39:02;;;;;;;16.08;2.20;;;;;;;-142.75;100.00;76564.38;4964242;28;20554;-70
2022/11/24 10:41:56;;;;;;;10.02;1.77;;;;;;;-142.75;100.00;76530.91;4966829;28;20021;-71
2022/11/24 10:44:22;;;;;;;8.23;1.90;;;;;;;-142.75;100.00;76542.72;4927646;28;20116;-70
2022/11/24 10:46:48;;;;;;;8.57;1.90;;;;;;;-142.75;100.00;76562.41;4977564;28;20530;-70
2022/11/24 10:49:23;;;;;;;;;;;;;;;-142.75;100.00;76489.59;4976671;28;20269;-70
2022/11/24 10:52:22;;;;;;;11.25;1.95;;;;;;;-142.75;100.00;76446.28;4982546;28;19982;-70
2022/11/24 10:54:59;;;;;;;9.25;1.80;;;;;;;-142.75;100.00;76424.63;4981616;28;20692;-71
2022/11/24 10:57:31;;;;;;;;;;;;;;;-142.75;100.00;76373.44;4970943;28;20017;-70
2022/11/24 10:59:56;;;;;;;9.73;1.70;;;;;;;-142.75;100.00;76454.16;4981466;28;19956;-70
2022/11/24 11:02:49;;;;;;;10.25;1.90;;;;;;;-142.75;100.00;76499.44;4964313;28;20416;-69
2022/11/24 11:05:40;;;;;;;11.07;1.83;;;;;;;-142.75;100.00;76519.13;4960764;28;20570;-70
2022/11/24 11:08:24;;;;;;;7.72;1.63;;;;;;;-142.75;100.00;76525.03;4965836;28;20550;-70
2022/11/24 11:11:06;;;;;;;10.60;2.33;;;;;;;-142.75;100.00;76489.59;4972871;28;20021;-73
2022/11/24 11:13:31;;;;;;;9.98;2.15;;;;;;;-142.75;100.00;76519.13;4975118;28;20866;-70
2022/11/24 11:15:58;;;;;;;8.73;1.65;;;;;;;-142.75;100.00;76511.25;4982358;28;20021;-70
2022/11/24 11:18:32;;;;;;;7.50;2.08;;;;;;;-142.75;100.00;76505.34;4976004;28;20155;-69
2022/11/24 11:21:03;;;;;;;12.27;2.47;;;;;;;-142.75;100.00;76489.59;4984077;28;20854;-68
2022/11/24 11:23:34;;;;;;;17.30;2.22;;;;;;;-142.75;100.00;76424.63;4977322;28;20196;-69